createdAt,value
2019-04-01T00:02:01.715Z,101326.20
2019-04-01T00:04:30.831Z,101324.11
2019-04-01T00:06:59.941Z,101324.52
2019-04-01T00:09:29.071Z,101324.30
2019-04-01T00:11:58.187Z,101319.25
2019-04-01T00:14:27.296Z,101322.18
2019-04-01T00:16:56.412Z,101325.41
2019-04-01T00:19:25.518Z,101324.06
2019-04-01T00:21:54.659Z,101330.62
2019-04-01T00:24:23.788Z,101324.85
2019-04-01T00:26:52.928Z,101324.63
2019-04-01T00:29:22.039Z,101324.72
2019-04-01T00:31:51.170Z,101331.50
2019-04-01T00:34:20.286Z,101334.88
2019-04-01T00:36:49.504Z,101333.10
2019-04-01T00:39:18.592Z,101335.30
2019-04-01T00:41:55.712Z,101331.44
2019-04-01T00:44:24.842Z,101332.16
2019-04-01T00:46:53.952Z,101328.45
2019-04-01T00:49:23.076Z,101330.05
2019-04-01T00:51:52.174Z,101328.63
2019-04-01T00:54:21.308Z,101328.38
2019-04-01T00:56:50.417Z,101325.97
2019-04-01T00:59:19.544Z,101326.75
2019-04-01T01:01:48.689Z,101324.84
2019-04-01T01:04:17.783Z,101327.39
2019-04-01T01:06:46.905Z,101325.91
2019-04-01T01:09:16.056Z,101325.56
2019-04-01T01:11:45.169Z,101323.89
2019-04-01T01:14:14.265Z,101330.70
2019-04-01T01:16:43.373Z,101322.36
2019-04-01T01:19:12.478Z,101320.45
2019-04-01T01:21:41.669Z,101319.98
2019-04-01T01:24:10.743Z,101319.98
2019-04-01T01:26:39.881Z,101323.06
2019-04-01T01:29:09.004Z,101318.42
2019-04-01T01:31:38.133Z,101318.42
2019-04-01T01:34:07.240Z,101317.95
2019-04-01T01:36:36.368Z,101318.77
2019-04-01T01:39:06.206Z,101318.77
2019-04-01T01:41:35.410Z,101309.28
2019-04-01T01:44:04.519Z,101316.64
2019-04-01T01:46:33.748Z,101310.05
2019-04-01T01:49:03.058Z,101305.17
2019-04-01T01:51:32.178Z,101305.78
2019-04-01T01:54:01.290Z,101300.47
2019-04-01T01:56:30.406Z,101300.47
2019-04-01T01:58:59.520Z,101304.63
2019-04-01T02:01:28.664Z,101292.28
2019-04-01T02:03:57.884Z,101303.80
2019-04-01T02:06:27.073Z,101302.78
2019-04-01T02:08:56.285Z,101304.44
2019-04-01T02:11:25.413Z,101307.53
2019-04-01T02:13:54.530Z,101307.87
2019-04-01T02:16:23.627Z,101301.70
2019-04-01T02:18:52.731Z,101298.07
2019-04-01T02:21:21.859Z,101294.63
2019-04-01T02:23:50.969Z,101294.63
2019-04-01T02:26:20.097Z,101292.84
2019-04-01T02:28:49.195Z,101296.56
2019-04-01T02:31:18.298Z,101295.58
2019-04-01T02:33:47.404Z,101292.48
2019-04-01T02:36:16.535Z,101287.91
2019-04-01T02:38:45.685Z,101289.75
2019-04-01T02:41:14.780Z,101293.19
2019-04-01T02:43:43.912Z,101290.92
2019-04-01T02:46:13.018Z,101292.92
2019-04-01T02:48:42.160Z,101288.66
2019-04-01T02:51:11.298Z,101246.61
2019-04-01T02:53:40.414Z,101293.27
2019-04-01T02:56:09.539Z,101293.68
2019-04-01T02:58:38.647Z,101292.92
2019-04-01T03:01:07.746Z,101293.86
2019-04-01T03:03:36.888Z,101290.30
2019-04-01T03:06:06.004Z,101297.36
2019-04-01T03:08:35.103Z,101288.31
2019-04-01T03:11:04.358Z,101297.61
2019-04-01T03:13:33.495Z,101292.12
2019-04-01T03:16:02.605Z,101283.41
2019-04-01T03:18:31.730Z,101295.48
2019-04-01T03:21:00.842Z,101284.92
2019-04-01T03:23:29.968Z,100968.50
2019-04-01T03:25:59.095Z,101280.28
2019-04-01T03:28:28.232Z,101289.95
2019-04-01T03:30:57.370Z,101283.44
2019-04-01T03:33:26.486Z,101286.05
2019-04-01T03:35:55.572Z,101285.23
2019-04-01T03:38:27.819Z,101287.39
2019-04-01T03:40:55.525Z,101280.36
2019-04-01T03:43:24.634Z,101281.11
2019-04-01T03:45:53.767Z,101273.02
2019-04-01T03:48:22.880Z,101276.30
2019-04-01T03:50:51.979Z,101282.81
2019-04-01T03:53:21.099Z,101285.35
2019-04-01T03:55:50.227Z,101280.86
2019-04-01T03:58:19.346Z,101283.05
2019-04-01T04:00:48.528Z,101279.59
2019-04-01T04:03:17.664Z,101282.95
2019-04-01T04:05:46.896Z,101281.37
2019-04-01T04:08:15.997Z,101278.94
2019-04-01T04:10:45.136Z,101285.23
2019-04-01T04:13:14.287Z,101275.91
2019-04-01T04:15:43.424Z,101283.98
2019-04-01T04:18:12.548Z,101289.91
2019-04-01T04:20:41.663Z,101291.41
2019-04-01T04:23:10.792Z,101276.59
2019-04-01T04:25:39.935Z,101285.70
2019-04-01T04:28:09.051Z,101286.60
2019-04-01T04:30:38.194Z,101287.62
2019-04-01T04:33:07.360Z,101285.42
2019-04-01T04:35:36.502Z,101287.80
2019-04-01T04:38:05.616Z,101293.80
2019-04-01T04:40:34.757Z,101291.45
2019-04-01T04:43:03.884Z,101297.89
2019-04-01T04:45:32.992Z,101298.22
2019-04-01T04:48:02.138Z,101303.43
2019-04-01T04:50:31.281Z,101302.47
2019-04-01T04:53:00.399Z,101302.39
2019-04-01T04:55:29.510Z,101296.29
2019-04-01T04:57:58.677Z,101289.78
2019-04-01T05:00:27.790Z,101301.50
2019-04-01T05:02:56.919Z,101165.10
2019-04-01T05:05:26.055Z,101302.47
2019-04-01T05:07:55.199Z,101306.44
2019-04-01T05:10:24.472Z,101304.99
2019-04-01T05:12:53.576Z,101307.27
2019-04-01T05:15:22.696Z,101307.04
2019-04-01T05:17:51.845Z,101305.88
2019-04-01T05:20:20.962Z,101307.85
2019-04-01T05:22:50.268Z,101309.16
2019-04-01T05:25:19.402Z,101311.75
2019-04-01T05:27:49.788Z,101311.91
2019-04-01T05:30:18.942Z,101310.23
2019-04-01T05:33:08.534Z,101309.38
2019-04-01T05:35:37.703Z,101308.82
2019-04-01T05:38:07.662Z,101314.70
2019-04-01T05:40:37.511Z,101317.52
2019-04-01T05:43:06.750Z,101330.69
2019-04-01T05:45:35.889Z,101322.28
2019-04-01T05:48:05.023Z,101324.18
2019-04-01T05:50:34.151Z,101329.95
2019-04-01T05:53:03.321Z,101334.48
2019-04-01T05:55:32.479Z,101332.09
2019-04-01T05:58:01.639Z,101328.00
2019-04-01T06:00:50.219Z,101330.86
2019-04-01T06:03:19.373Z,101330.67
2019-04-01T06:05:48.615Z,101327.87
2019-04-01T06:08:18.233Z,101333.84
2019-04-01T06:10:47.429Z,101326.35
2019-04-01T06:13:16.550Z,101331.30
2019-04-01T06:15:45.740Z,101320.75
2019-04-01T06:18:14.865Z,101326.27
2019-04-01T06:20:44.156Z,101332.59
2019-04-01T06:23:13.275Z,101326.48
2019-04-01T06:25:42.909Z,101326.39
2019-04-01T06:28:12.016Z,101329.41
2019-04-01T06:30:41.173Z,101329.30
2019-04-01T06:33:10.317Z,101326.68
2019-04-01T06:35:39.442Z,101330.27
2019-04-01T06:38:08.562Z,101335.12
2019-04-01T06:40:38.212Z,101336.08
2019-04-01T06:43:07.316Z,101339.72
2019-04-01T06:45:36.444Z,101336.75
2019-04-01T06:48:05.558Z,101334.52
2019-04-01T06:50:34.689Z,101334.69
2019-04-01T06:53:03.792Z,101330.16
2019-04-01T06:55:32.901Z,101324.07
2019-04-01T06:58:02.046Z,101323.89
2019-04-01T07:00:31.161Z,101319.86
2019-04-01T07:03:00.424Z,101308.67
2019-04-01T07:05:29.821Z,101300.66
2019-04-01T07:07:59.144Z,101296.98
2019-04-01T07:10:28.275Z,101280.95
2019-04-01T07:12:57.393Z,101280.80
2019-04-01T07:15:26.623Z,101279.56
2019-04-01T07:17:56.073Z,101274.16
2019-04-01T07:20:25.269Z,101262.36
2019-04-01T07:22:54.405Z,101259.67
2019-04-01T07:25:23.571Z,101259.67
2019-04-01T07:27:52.840Z,101266.55
2019-04-01T07:30:21.975Z,101266.32
2019-04-01T07:32:51.210Z,101262.81
2019-04-01T07:35:20.376Z,101262.59
2019-04-01T07:37:49.586Z,101260.21
2019-04-01T07:40:18.718Z,101254.31
2019-04-01T07:42:47.888Z,101251.27
2019-04-01T07:45:17.111Z,101254.77
2019-04-01T07:47:46.238Z,101255.34
2019-04-01T07:50:15.940Z,101243.97
2019-04-01T07:52:45.620Z,101251.44
2019-04-01T07:55:14.854Z,101256.89
2019-04-01T07:57:43.986Z,101255.42
2019-04-01T08:00:13.434Z,101245.92
2019-04-01T08:02:42.660Z,101252.09
2019-04-01T08:05:11.779Z,101247.34
2019-04-01T08:07:41.034Z,101244.63
2019-04-01T08:10:10.472Z,101248.95
2019-04-01T08:12:39.763Z,101249.61
2019-04-01T08:15:09.537Z,101244.66
2019-04-01T08:17:38.665Z,101242.66
2019-04-01T08:20:08.749Z,101237.91
2019-04-01T08:22:37.885Z,101241.95
2019-04-01T08:25:07.638Z,101236.02
2019-04-01T08:27:36.787Z,101240.98
2019-04-01T08:30:06.804Z,101242.48
2019-04-01T08:32:36.460Z,101246.95
2019-04-01T08:35:05.997Z,101245.67
2019-04-01T08:37:35.288Z,101243.42
2019-04-01T08:40:05.082Z,101231.04
2019-04-01T08:42:34.303Z,101233.55
2019-04-01T08:45:03.539Z,101225.71
2019-04-01T08:47:32.725Z,101233.92
2019-04-01T08:50:01.957Z,101230.88
2019-04-01T08:52:33.228Z,101242.71
2019-04-01T08:55:02.249Z,101234.22
2019-04-01T08:57:31.370Z,101229.91
2019-04-01T09:00:00.855Z,101228.58
2019-04-01T09:02:30.051Z,101237.88
2019-04-01T09:04:59.186Z,101231.58
2019-04-01T09:07:28.302Z,101230.68
2019-04-01T09:09:57.646Z,101237.39
2019-04-01T09:12:28.186Z,101223.84
2019-04-01T09:14:57.927Z,101225.34
2019-04-01T09:17:27.055Z,101224.30
2019-04-01T09:19:56.215Z,101230.18
2019-04-01T09:22:25.362Z,101230.45
2019-04-01T09:24:54.478Z,101224.55
2019-04-01T09:27:23.652Z,101227.69
2019-04-01T09:29:52.789Z,101219.11
2019-04-01T09:32:21.891Z,101220.41
2019-04-01T09:34:51.060Z,101215.73
2019-04-01T09:37:20.171Z,101215.09
2019-04-01T09:39:49.317Z,101213.63
2019-04-01T09:42:18.455Z,101210.05
2019-04-01T09:44:47.595Z,101205.70
2019-04-01T09:47:16.719Z,101201.34
2019-04-01T09:49:45.901Z,101205.66
2019-04-01T09:52:15.031Z,101208.52
2019-04-01T09:54:44.141Z,101206.44
2019-04-01T09:57:17.786Z,101074.11
2019-04-01T09:59:44.121Z,101182.13
2019-04-01T10:02:13.238Z,101183.81
2019-04-01T10:04:42.396Z,101185.44
2019-04-01T10:07:11.530Z,101171.66
2019-04-01T10:09:40.739Z,101163.44
2019-04-01T10:12:09.857Z,101160.47
2019-04-01T10:14:38.974Z,101160.77
2019-04-01T10:17:08.100Z,101145.44
2019-04-01T10:19:37.220Z,101149.87
2019-04-01T10:22:06.382Z,101116.56
2019-04-01T10:24:35.530Z,101143.86
2019-04-01T10:27:04.683Z,101141.70
2019-04-01T10:29:33.824Z,101134.33
2019-04-01T10:32:02.951Z,101129.17
2019-04-01T10:34:34.098Z,101123.88
2019-04-01T10:37:03.176Z,101125.86
2019-04-01T10:39:32.337Z,101117.48
2019-04-01T10:42:01.565Z,101113.02
2019-04-01T10:44:30.683Z,101105.81
2019-04-01T10:46:59.922Z,101118.79
2019-04-01T10:49:32.032Z,101114.83
2019-04-01T10:51:59.968Z,101102.97
2019-04-01T10:54:29.028Z,101106.30
2019-04-01T10:56:58.181Z,101100.59
2019-04-01T10:59:27.362Z,101090.96
2019-04-01T11:01:56.511Z,101096.84
2019-04-01T11:04:25.679Z,101086.27
2019-04-01T11:06:54.860Z,101092.55
2019-04-01T11:09:37.703Z,101096.97
2019-04-01T11:11:55.827Z,101078.30
2019-04-01T11:14:25.215Z,101095.69
2019-04-01T11:16:54.502Z,101095.75
2019-04-01T11:19:23.699Z,101088.72
2019-04-01T11:21:52.860Z,101087.71
2019-04-01T11:24:22.012Z,101082.69
2019-04-01T11:26:51.159Z,101070.62
2019-04-01T11:29:20.298Z,101078.97
2019-04-01T11:31:49.506Z,101060.30
2019-04-01T11:34:19.341Z,101058.60
2019-04-01T11:36:48.803Z,101056.66
2019-04-01T11:39:17.968Z,101055.50
2019-04-01T11:41:47.252Z,101053.94
2019-04-01T11:44:16.501Z,101054.52
2019-04-01T11:46:45.637Z,101044.31
2019-04-01T11:49:14.774Z,101045.05
2019-04-01T11:51:43.990Z,101038.30
2019-04-01T11:54:13.349Z,101043.87
2019-04-01T11:56:42.486Z,101038.01
2019-04-01T11:59:11.639Z,101029.08
2019-04-01T12:01:40.801Z,101027.92
2019-04-01T12:04:09.925Z,101021.88
2019-04-01T12:06:39.077Z,101013.10
2019-04-01T12:09:08.554Z,100998.52
2019-04-01T12:11:37.723Z,101005.12
2019-04-01T12:14:06.823Z,101000.67
2019-04-01T12:16:35.960Z,101005.35
2019-04-01T12:19:05.096Z,100994.95
2019-04-01T12:21:34.216Z,100992.19
2019-04-01T12:24:03.639Z,100984.62
2019-04-01T12:26:32.844Z,100984.36
2019-04-01T12:29:01.981Z,100969.53
2019-04-01T12:31:31.238Z,100975.98
2019-04-01T12:34:00.394Z,100968.39
2019-04-01T12:36:29.519Z,100965.34
2019-04-01T12:38:58.716Z,100965.06
2019-04-01T12:41:27.867Z,100957.91
2019-04-01T12:43:56.986Z,100953.28
2019-04-01T12:46:26.229Z,100947.23
2019-04-01T12:48:55.351Z,100944.77
2019-04-01T12:51:24.506Z,100950.31
2019-04-01T12:53:53.646Z,100944.03
2019-04-01T12:56:22.806Z,100938.44
2019-04-01T12:58:51.952Z,100925.17
2019-04-01T13:01:21.201Z,100926.70
2019-04-01T13:03:50.353Z,100926.08
2019-04-01T13:06:19.552Z,100915.87
2019-04-01T13:08:48.680Z,100904.78
2019-04-01T13:11:19.341Z,100904.41
2019-04-01T13:13:48.960Z,100897.53
2019-04-01T13:16:18.113Z,100895.22
2019-04-01T13:18:47.653Z,100891.78
2019-04-01T13:21:16.812Z,100889.45
2019-04-01T13:23:45.982Z,100885.48
2019-04-01T13:26:15.127Z,100885.45
2019-04-01T13:28:44.263Z,100879.34
2019-04-01T13:31:13.419Z,100877.36
2019-04-01T13:33:42.571Z,100862.91
2019-04-01T13:36:11.703Z,100863.79
2019-04-01T13:38:40.834Z,100864.41
2019-04-01T13:41:13.122Z,100854.67
2019-04-01T13:43:41.114Z,100856.04
2019-04-01T13:46:13.332Z,100849.89
2019-04-01T13:48:56.590Z,100848.86
2019-04-01T13:51:13.444Z,100842.59
2019-04-01T13:53:42.546Z,100840.19
2019-04-01T13:56:12.618Z,100838.65
2019-04-01T13:58:41.968Z,100834.86
2019-04-01T14:01:11.134Z,100831.08
2019-04-01T14:03:40.252Z,100825.03
2019-04-01T14:06:09.473Z,100819.18
2019-04-01T14:08:38.841Z,100812.19
2019-04-01T14:11:08.060Z,100818.92
2019-04-01T14:13:37.225Z,100818.84
2019-04-01T14:16:06.371Z,100739.09
2019-04-01T14:18:35.471Z,100801.67
2019-04-01T14:21:15.905Z,100797.33
2019-04-01T14:23:35.411Z,100794.39
2019-04-01T14:26:04.621Z,100786.84
2019-04-01T14:28:33.784Z,100785.34
2019-04-01T14:31:02.923Z,100779.75
2019-04-01T14:33:32.689Z,100771.84
2019-04-01T14:36:02.183Z,100767.39
2019-04-01T14:38:31.285Z,100766.80
2019-04-01T14:41:00.606Z,100766.87
2019-04-01T14:43:31.224Z,100765.31
2019-04-01T14:46:00.577Z,100764.16
2019-04-01T14:48:30.612Z,100750.30
2019-04-01T14:50:59.816Z,100748.62
2019-04-01T14:53:28.954Z,100742.37
2019-04-01T14:55:59.042Z,100730.36
2019-04-01T14:58:28.244Z,100730.57
2019-04-01T15:00:57.372Z,100731.70
2019-04-01T15:03:26.542Z,100724.75
2019-04-01T15:05:55.674Z,100721.76
2019-04-01T15:08:24.838Z,100722.08
2019-04-01T15:10:53.957Z,100710.14
2019-04-01T15:13:23.075Z,100709.31
2019-04-01T15:15:52.255Z,100710.80
2019-04-01T15:18:21.372Z,100701.70
2019-04-01T15:20:50.583Z,100702.64
2019-04-01T15:23:19.734Z,100699.39
2019-04-01T15:25:49.161Z,100692.86
2019-04-01T15:28:18.343Z,100695.16
2019-04-01T15:30:47.559Z,100688.52
2019-04-01T15:33:16.695Z,100682.77
2019-04-01T15:35:45.871Z,100676.63
2019-04-01T15:38:15.045Z,100670.38
2019-04-01T15:40:44.190Z,100665.41
2019-04-01T15:43:13.526Z,100661.02
2019-04-01T15:45:42.613Z,100656.64
2019-04-01T15:48:11.761Z,100654.17
2019-04-01T15:50:41.077Z,100651.38
2019-04-01T15:53:10.237Z,100653.30
2019-04-01T15:55:39.392Z,100653.09
2019-04-01T15:58:08.521Z,100647.97
2019-04-01T16:00:37.708Z,100647.80
2019-04-01T16:03:06.833Z,100645.00
2019-04-01T16:05:36.991Z,100642.47
2019-04-01T16:08:06.112Z,100639.67
2019-04-01T16:10:35.454Z,100633.42
2019-04-01T16:13:04.599Z,100629.89
2019-04-01T16:15:33.827Z,100634.27
2019-04-01T16:18:03.010Z,100629.78
2019-04-01T16:20:34.095Z,100621.02
2019-04-01T16:23:03.083Z,100622.77
2019-04-01T16:25:32.242Z,100624.89
2019-04-01T16:28:01.408Z,100620.67
2019-04-01T16:30:30.560Z,100624.25
2019-04-01T16:32:59.711Z,100619.83
2019-04-01T16:35:28.861Z,100621.13
2019-04-01T16:37:59.452Z,100620.02
2019-04-01T16:40:28.730Z,100617.94
2019-04-01T16:42:57.890Z,100616.97
2019-04-01T16:45:27.027Z,100613.69
2019-04-01T16:47:56.142Z,100616.70
2019-04-01T16:50:28.483Z,100616.83
2019-04-01T16:52:56.217Z,100617.08
2019-04-01T16:55:25.377Z,100621.38
2019-04-01T16:57:54.569Z,100614.89
2019-04-01T17:00:24.044Z,100616.44
2019-04-01T17:02:53.184Z,100617.03
2019-04-01T17:05:28.563Z,100614.98
2019-04-01T17:07:57.692Z,100620.84
2019-04-01T17:10:27.144Z,100620.55
2019-04-01T17:12:56.329Z,100614.97
2019-04-01T17:15:25.443Z,100613.42
2019-04-01T17:17:54.645Z,100619.00
2019-04-01T17:20:23.896Z,100617.84
2019-04-01T17:22:53.180Z,100547.01
2019-04-01T17:25:22.311Z,100616.00
2019-04-01T17:27:51.442Z,100611.70
2019-04-01T17:30:20.695Z,100613.31
2019-04-01T17:32:49.834Z,100608.67
2019-04-01T17:35:18.990Z,100608.91
2019-04-01T17:37:48.156Z,100601.52
2019-04-01T17:40:17.559Z,100599.45
2019-04-01T17:42:47.100Z,100603.60
2019-04-01T17:45:40.311Z,100603.73
2019-04-01T17:48:09.990Z,100604.33
2019-04-01T17:50:39.130Z,100608.82
2019-04-01T17:53:09.902Z,100604.89
2019-04-01T17:55:39.114Z,100603.73
2019-04-01T17:58:08.437Z,100607.70
2019-04-01T18:00:41.896Z,100601.23
2019-04-01T18:03:11.527Z,100601.36
2019-04-01T18:05:40.678Z,100607.23
2019-04-01T18:08:09.817Z,100609.00
2019-04-01T18:10:39.035Z,100607.79
2019-04-01T18:13:08.189Z,100612.27
2019-04-01T18:15:37.444Z,100615.45
2019-04-01T18:18:06.578Z,100613.30
2019-04-01T18:20:35.802Z,100607.19
2019-04-01T18:23:05.015Z,100609.43
2019-04-01T18:25:34.215Z,100614.80
2019-04-01T18:28:03.352Z,100617.45
2019-04-01T18:30:32.517Z,100615.25
2019-04-01T18:33:01.723Z,100620.58
2019-04-01T18:35:31.113Z,100624.16
2019-04-01T18:38:00.356Z,100619.33
2019-04-01T18:40:33.311Z,100628.65
2019-04-01T18:43:00.482Z,100622.06
2019-04-01T18:45:29.684Z,100552.59
2019-04-01T18:47:58.851Z,100621.62
2019-04-01T18:50:28.011Z,100629.16
2019-04-01T18:52:57.172Z,100619.91
2019-04-01T18:55:26.546Z,100622.12
2019-04-01T18:57:56.531Z,100623.44
2019-04-01T19:00:25.928Z,100630.05
2019-04-01T19:02:55.645Z,100626.97
2019-04-01T19:05:25.116Z,100629.17
2019-04-01T19:07:54.300Z,100626.13
2019-04-01T19:10:23.473Z,100623.49
2019-04-01T19:13:05.281Z,100625.73
2019-04-01T19:15:24.470Z,100634.09
2019-04-01T19:17:54.342Z,100623.98
2019-04-01T19:20:24.082Z,100634.09
2019-04-01T19:22:53.265Z,100631.48
2019-04-01T19:25:23.330Z,100629.67
2019-04-01T19:27:52.827Z,100631.88
2019-04-01T19:30:22.205Z,100628.33
2019-04-01T19:32:51.335Z,100625.70
2019-04-01T19:35:20.501Z,100624.80
2019-04-01T19:37:49.631Z,100624.37
2019-04-01T19:40:20.709Z,100623.46
2019-04-01T19:42:50.047Z,100619.03
2019-04-01T19:45:19.431Z,100622.98
2019-04-01T19:47:48.645Z,100624.71
2019-04-01T19:50:19.084Z,100615.91
2019-04-01T19:52:48.378Z,100610.63
2019-04-01T19:55:17.518Z,100609.30
2019-04-01T19:57:46.748Z,100613.67
2019-04-01T20:00:27.160Z,100607.48
2019-04-01T20:02:47.332Z,100605.73
2019-04-01T20:05:16.504Z,100607.48
2019-04-01T20:07:45.653Z,100610.12
2019-04-01T20:10:17.118Z,100605.68
2019-04-01T20:12:46.446Z,100503.55
2019-04-01T20:15:15.680Z,100603.88
2019-04-01T20:17:44.862Z,100597.75
2019-04-01T20:20:14.727Z,100599.03
2019-04-01T20:22:44.014Z,100596.41
2019-04-01T20:25:13.234Z,100592.88
2019-04-01T20:27:44.084Z,100591.53
2019-04-01T20:30:13.938Z,100584.02
2019-04-01T20:32:43.085Z,100587.96
2019-04-01T20:35:22.800Z,100584.45
2019-04-01T20:37:43.371Z,100580.47
2019-04-01T20:40:13.134Z,100580.00
2019-04-01T20:42:42.287Z,100576.92
2019-04-01T20:45:13.507Z,100570.30
2019-04-01T20:47:42.593Z,100561.07
2019-04-01T20:50:12.015Z,100568.95
2019-04-01T20:52:41.135Z,100565.38
2019-04-01T20:55:10.357Z,100558.35
2019-04-01T20:57:39.502Z,100552.17
2019-04-01T21:00:09.918Z,100549.47
2019-04-01T21:02:40.456Z,100548.97
2019-04-01T21:05:09.798Z,100545.90
2019-04-01T21:07:39.041Z,100536.19
2019-04-01T21:10:09.691Z,100535.71
2019-04-01T21:12:38.835Z,100533.93
2019-04-01T21:15:08.552Z,100531.27
2019-04-01T21:17:37.675Z,100524.22
2019-04-01T21:20:07.244Z,100529.91
2019-04-01T21:22:36.838Z,100529.42
2019-04-01T21:25:25.797Z,100521.08
2019-04-01T21:27:55.024Z,100526.31
2019-04-01T21:30:24.558Z,100404.34
2019-04-01T21:32:53.722Z,100516.17
2019-04-01T21:35:22.831Z,100510.45
2019-04-01T21:37:51.972Z,100513.02
2019-04-01T21:40:21.084Z,100510.34
2019-04-01T21:42:51.348Z,100500.64
2019-04-01T21:45:20.853Z,100500.61
2019-04-01T21:47:49.987Z,100499.68
2019-04-01T21:50:19.192Z,100488.27
2019-04-01T21:52:48.337Z,100488.23
2019-04-01T21:55:17.534Z,100489.09
2019-04-01T21:57:46.748Z,100486.91
2019-04-01T22:00:21.220Z,100488.63
2019-04-01T22:02:50.382Z,100489.91
2019-04-01T22:05:19.528Z,100483.73
2019-04-01T22:07:48.723Z,100484.61
2019-04-01T22:10:17.955Z,100479.34
2019-04-01T22:12:47.241Z,100471.88
2019-04-01T22:15:18.686Z,100470.98
2019-04-01T22:17:47.258Z,100467.41
2019-04-01T22:20:16.363Z,100456.39
2019-04-01T22:22:45.478Z,100454.63
2019-04-01T22:25:14.590Z,100452.44
2019-04-01T22:27:43.686Z,100447.61
2019-04-01T22:30:13.320Z,100446.28
2019-04-01T22:32:42.541Z,100444.45
2019-04-01T22:35:11.627Z,100435.16
2019-04-01T22:37:40.756Z,100439.43
2019-04-01T22:40:10.014Z,100433.69
2019-04-01T22:42:39.135Z,100434.55
2019-04-01T22:45:08.584Z,100431.89
2019-04-01T22:47:37.702Z,100427.05
2019-04-01T22:50:06.876Z,100427.91
2019-04-01T22:52:35.992Z,100419.52
2019-04-01T22:55:05.307Z,100423.84
2019-04-01T22:57:34.437Z,100418.95
2019-04-01T23:00:03.577Z,100420.66
2019-04-01T23:02:32.698Z,100415.67
2019-04-01T23:05:01.873Z,100414.23
2019-04-01T23:07:31.003Z,100408.04
2019-04-01T23:10:00.141Z,100409.23
2019-04-01T23:12:29.297Z,100400.91
2019-04-01T23:14:58.479Z,100401.19
2019-04-01T23:17:27.620Z,100403.78
2019-04-01T23:19:56.765Z,100401.59
2019-04-01T23:22:25.994Z,100401.95
2019-04-01T23:24:57.236Z,100398.91
2019-04-01T23:27:26.310Z,100394.05
2019-04-01T23:29:57.795Z,100387.06
2019-04-01T23:32:27.032Z,100391.00
2019-04-01T23:34:56.146Z,100386.97
2019-04-01T23:37:25.270Z,100387.38
2019-04-01T23:39:54.384Z,100382.51
2019-04-01T23:42:23.556Z,100372.86
2019-04-01T23:44:55.684Z,100366.71
2019-04-01T23:47:24.810Z,100374.00
2019-04-01T23:49:53.952Z,100362.92
2019-04-01T23:52:23.056Z,100362.45
2019-04-01T23:54:52.171Z,100365.47
2019-04-01T23:57:21.280Z,100356.25
2019-04-01T23:59:50.420Z,100356.65
